EZY75ZU LGRP-EGNT
Flight info
| Callsign | EZY75ZU |
|---|---|
| Flight time | N/A |
| Altitude | 34000 |
| Route | VANES M601 GILOS UM601 ADESO UN133 RIGRO DCT DISOR DCT LONTA UL608 DOLEV DCT YUYUH DCT UZVEZ DCT IRDIV DCT PODET DCT SIMBA DCT GASKA DCT MAPOX DCT AMGOD DCT MIMVA L602 NALAX L46 ESHIN N110 ERKIT |
| Aircraft | A320/M-SDE2E3FGHIJ1RWXYZ/LB1 |
Departure
| Time | N/A |
|---|---|
| Airport | Rhodes International Airport "Diagoras" (LGRP) |
Arrival
| Time | 2026-05-05 15:26 |
|---|---|
| Airport | Newcastle International Airport (EGNT) |
| Time | Latitude | Longitude | Altitude | Speed | Heading |
|---|---|---|---|---|---|
| 2026-05-05 15:12 | 54.42713 | -1.33627 | 13886 ft | 328 kts | 321° |
| 2026-05-05 15:12 | 54.44529 | -1.35972 | 13439 ft | 326 kts | 321° |
| 2026-05-05 15:13 | 54.46334 | -1.38309 | 13006 ft | 324 kts | 321° |
| 2026-05-05 15:13 | 54.49786 | -1.42791 | 12166 ft | 320 kts | 321° |
| 2026-05-05 15:13 | 54.51554 | -1.45089 | 11745 ft | 318 kts | 321° |
| 2026-05-05 15:14 | 54.53315 | -1.47374 | 11321 ft | 316 kts | 321° |
| 2026-05-05 15:14 | 54.55063 | -1.49641 | 10901 ft | 314 kts | 321° |
| 2026-05-05 15:14 | 54.56803 | -1.51899 | 10493 ft | 312 kts | 321° |
| 2026-05-05 15:14 | 54.58519 | -1.54132 | 10228 ft | 305 kts | 321° |
| 2026-05-05 15:15 | 54.60192 | -1.56316 | 9983 ft | 298 kts | 321° |
| 2026-05-05 15:15 | 54.61817 | -1.58440 | 9855 ft | 288 kts | 321° |
| 2026-05-05 15:15 | 54.63382 | -1.60486 | 9715 ft | 278 kts | 321° |
| 2026-05-05 15:15 | 54.64911 | -1.62489 | 9494 ft | 274 kts | 321° |
| 2026-05-05 15:16 | 54.66412 | -1.64456 | 9277 ft | 266 kts | 321° |
| 2026-05-05 15:16 | 54.67862 | -1.66356 | 9140 ft | 257 kts | 321° |
| 2026-05-05 15:16 | 54.69257 | -1.68212 | 9015 ft | 248 kts | 317° |
| 2026-05-05 15:16 | 54.70358 | -1.70404 | 8837 ft | 239 kts | 301° |
| 2026-05-05 15:17 | 54.71170 | -1.72881 | 8569 ft | 236 kts | 299° |
| 2026-05-05 15:17 | 54.71971 | -1.75349 | 8263 ft | 234 kts | 299° |
| 2026-05-05 15:17 | 54.72767 | -1.77797 | 7939 ft | 233 kts | 299° |
| 2026-05-05 15:17 | 54.73556 | -1.80235 | 7625 ft | 232 kts | 299° |
| 2026-05-05 15:18 | 54.74342 | -1.82661 | 7311 ft | 231 kts | 300° |
| 2026-05-05 15:18 | 54.75127 | -1.85083 | 6995 ft | 230 kts | 300° |
| 2026-05-05 15:18 | 54.75911 | -1.87501 | 6680 ft | 230 kts | 300° |
| 2026-05-05 15:18 | 54.76695 | -1.89912 | 6339 ft | 231 kts | 302° |
| 2026-05-05 15:19 | 54.77724 | -1.92024 | 5969 ft | 230 kts | 321° |
| 2026-05-05 15:19 | 54.79086 | -1.93409 | 5826 ft | 226 kts | 339° |
| 2026-05-05 15:19 | 54.80563 | -1.94364 | 5705 ft | 227 kts | 339° |
| 2026-05-05 15:19 | 54.82008 | -1.95313 | 5614 ft | 224 kts | 339° |
| 2026-05-05 15:20 | 54.83493 | -1.96218 | 5517 ft | 223 kts | 348° |
| 2026-05-05 15:20 | 54.85038 | -1.96351 | 5293 ft | 224 kts | 6° |
| 2026-05-05 15:20 | 54.86573 | -1.96031 | 5003 ft | 221 kts | 6° |
| 2026-05-05 15:20 | 54.88090 | -1.95717 | 4725 ft | 219 kts | 7° |
| 2026-05-05 15:21 | 54.89596 | -1.95401 | 4441 ft | 217 kts | 7° |
| 2026-05-05 15:21 | 54.91075 | -1.95093 | 4159 ft | 217 kts | 7° |
| 2026-05-05 15:21 | 54.92583 | -1.94779 | 3789 ft | 220 kts | 7° |
| 2026-05-05 15:21 | 54.94096 | -1.94466 | 3532 ft | 217 kts | 7° |
| 2026-05-05 15:22 | 54.95555 | -1.94088 | 3318 ft | 206 kts | 17° |
| 2026-05-05 15:22 | 54.96803 | -1.93051 | 3180 ft | 197 kts | 35° |
| 2026-05-05 15:22 | 54.97760 | -1.91365 | 2972 ft | 197 kts | 54° |
| 2026-05-05 15:22 | 54.98385 | -1.89240 | 2756 ft | 197 kts | 62° |
| 2026-05-05 15:23 | 54.98957 | -1.87104 | 2466 ft | 191 kts | 62° |
| 2026-05-05 15:23 | 54.99498 | -1.85080 | 2222 ft | 178 kts | 62° |
| 2026-05-05 15:23 | 55.00001 | -1.83197 | 1983 ft | 164 kts | 62° |
| 2026-05-05 15:23 | 55.00465 | -1.81460 | 1746 ft | 153 kts | 61° |
| 2026-05-05 15:24 | 55.00896 | -1.79845 | 1549 ft | 139 kts | 60° |
| 2026-05-05 15:24 | 55.01292 | -1.78365 | 1353 ft | 133 kts | 61° |
| 2026-05-05 15:24 | 55.01677 | -1.76926 | 1151 ft | 130 kts | 60° |
| 2026-05-05 15:24 | 55.02060 | -1.75511 | 955 ft | 129 kts | 61° |
| 2026-05-05 15:25 | 55.02431 | -1.74099 | 767 ft | 127 kts | 63° |
| 2026-05-05 15:25 | 55.02800 | -1.72704 | 596 ft | 127 kts | 63° |
| 2026-05-05 15:25 | 55.03170 | -1.71306 | 410 ft | 127 kts | 62° |
| 2026-05-05 15:25 | 55.03534 | -1.69937 | 279 ft | 122 kts | 62° |
| 2026-05-05 15:26 | 55.03823 | -1.68873 | 262 ft | 65 kts | 65° |
| 2026-05-05 15:26 | 55.03935 | -1.68456 | 259 ft | 26 kts | 54° |
| 2026-05-05 15:26 | 55.04061 | -1.68281 | 257 ft | 17 kts | 35° |
| 2026-05-05 15:26 | 55.04147 | -1.68266 | 257 ft | 13 kts | 301° |
| 2026-05-05 15:27 | 55.04126 | -1.68417 | 258 ft | 11 kts | 245° |
| 2026-05-05 15:27 | 55.04096 | -1.68530 | 259 ft | 11 kts | 245° |
| 2026-05-05 15:27 | 55.04059 | -1.68667 | 261 ft | 16 kts | 245° |
| 2026-05-05 15:27 | 55.04001 | -1.68886 | 263 ft | 22 kts | 245° |
| 2026-05-05 15:28 | 55.03934 | -1.69137 | 265 ft | 24 kts | 245° |
| 2026-05-05 15:28 | 55.03867 | -1.69390 | 267 ft | 23 kts | 245° |
| 2026-05-05 15:28 | 55.03804 | -1.69663 | 270 ft | 26 kts | 255° |
| 2026-05-05 15:28 | 55.03776 | -1.69949 | 270 ft | 19 kts | 264° |
| 2026-05-05 15:29 | 55.03773 | -1.70114 | 269 ft | 13 kts | 272° |
| 2026-05-05 15:29 | 55.03777 | -1.70264 | 268 ft | 12 kts | 273° |
| 2026-05-05 15:29 | 55.03769 | -1.70402 | 268 ft | 12 kts | 236° |
| 2026-05-05 15:29 | 55.03676 | -1.70438 | 272 ft | 15 kts | 185° |
| 2026-05-05 15:30 | 55.03609 | -1.70503 | 274 ft | 7 kts | 241° |
| 2026-05-05 15:30 | 55.03601 | -1.70585 | 275 ft | 9 kts | 279° |
| 2026-05-05 15:30 | 55.03641 | -1.70641 | 274 ft | 2 kts | 352° |
| 2026-05-05 15:30 | 55.03657 | -1.70647 | 275 ft | 0 kts | 348° |
| 2026-05-05 15:31 | 55.03656 | -1.70647 | 275 ft | 0 kts | 348° |